Time;durP1;ratioP1;P1;durP2;ratioP2;P2;SDS_P1;SDS_P2;PMS_P1;PMS_P2;Temp;Humidity;BMP_temperature;BMP_pressure;BME280_temperature;BME280_humidity;BME280_pressure;Samples;Min_cycle;Max_cycle;Signal;HPM_P1;HPM_P2
2022/01/25 00:08:24;;;;;;;52.85;18.55;;;8.70;91.80;;;;;;5093699;28;20035;-72
2022/01/25 00:24:20;;;;;;;49.35;19.83;;;8.60;91.80;;;;;;5092678;28;20047;-72
2022/01/25 00:26:59;;;;;;;46.10;17.67;;;8.50;91.80;;;;;;5081445;28;20036;-72
2022/01/25 00:29:49;;;;;;;41.67;16.63;;;8.60;91.80;;;;;;5093768;28;20031;-72
2022/01/25 00:32:16;;;;;;;17.60;8.63;;;8.50;91.80;;;;;;5093314;28;20063;-73
2022/01/25 00:34:42;;;;;;;31.80;12.88;;;8.50;91.90;;;;;;5083336;28;20032;-73
2022/01/25 00:37:08;;;;;;;31.13;11.77;;;8.50;91.80;;;;;;5094535;28;20538;-72
2022/01/25 00:39:37;;;;;;;24.33;11.10;;;8.50;91.80;;;;;;5104762;28;20056;-73
2022/01/25 00:42:04;;;;;;;38.63;14.70;;;8.50;91.80;;;;;;5082223;28;20028;-73
2022/01/25 00:44:35;;;;;;;43.03;19.88;;;8.50;91.90;;;;;;5093777;28;20040;-73
2022/01/25 00:47:06;;;;;;;26.00;11.05;;;8.50;91.90;;;;;;5093167;28;20036;-73
2022/01/25 00:49:39;;;;;;;30.52;12.23;;;8.40;91.80;;;;;;5093587;28;20039;-73
2022/01/25 00:52:20;;;;;;;43.45;18.52;;;8.40;91.80;;;;;;5092187;28;20097;-72
2022/01/25 00:54:47;;;;;;;41.70;15.95;;;8.40;91.80;;;;;;5084630;28;20036;-73
2022/01/25 00:57:13;;;;;;;29.55;11.63;;;8.50;91.90;;;;;;5077098;28;20369;-72
2022/01/25 00:59:39;;;;;;;31.42;12.82;;;8.40;91.90;;;;;;5092432;28;20039;-72
2022/01/25 01:02:09;;;;;;;44.25;18.63;;;8.40;91.90;;;;;;5092848;28;20043;-72
2022/01/25 01:04:35;;;;;;;50.00;19.35;;;8.40;91.90;;;;;;5093261;28;20032;-73
2022/01/25 01:07:05;;;;;;;38.72;13.48;;;8.40;91.80;;;;;;5105513;28;20047;-73
2022/01/25 01:09:33;;;;;;;36.47;16.55;;;8.50;91.90;;;;;;5083016;28;20398;-73
2022/01/25 01:12:11;;;;;;;41.58;15.98;;;8.40;91.90;;;;;;5082703;28;20459;-73
2022/01/25 01:31:07;;;;;;;41.20;18.08;;;8.40;91.80;;;;;;5080607;28;20035;-73
2022/01/25 01:34:16;;;;;;;;;;;8.40;91.80;;;;;;5083018;28;20036;-73
2022/01/25 01:39:59;;;;;;;39.10;17.08;;;8.40;91.80;;;;;;5088137;28;20431;-73
2022/01/25 01:47:36;;;;;;;43.63;18.45;;;8.30;92.00;;;;;;5091125;28;20024;-73
2022/01/25 01:50:09;;;;;;;33.55;13.50;;;8.30;91.90;;;;;;5092365;28;20388;-73
2022/01/25 01:52:35;;;;;;;27.17;12.77;;;8.40;92.00;;;;;;5084571;28;20052;-73
2022/01/25 01:55:01;;;;;;;40.33;14.55;;;8.40;92.00;;;;;;5073760;28;20029;-72
2022/01/25 01:57:26;;;;;;;18.83;7.70;;;8.30;91.90;;;;;;5090405;28;20028;-73
2022/01/25 01:59:55;;;;;;;44.42;18.73;;;8.30;91.90;;;;;;5092372;28;20059;-72
2022/01/25 02:02:21;;;;;;;36.42;15.60;;;8.30;91.90;;;;;;5091594;28;20024;-73
2022/01/25 02:04:47;;;;;;;12.82;6.50;;;8.40;91.90;;;;;;5092350;28;20043;-72
2022/01/25 02:07:13;;;;;;;35.22;14.15;;;8.30;91.90;;;;;;5092730;28;20024;-73
2022/01/25 02:09:38;;;;;;;30.77;13.13;;;8.30;91.90;;;;;;5091705;28;20110;-73
2022/01/25 02:12:05;;;;;;;37.13;12.63;;;8.30;91.90;;;;;;5105703;28;20028;-72
2022/01/25 02:14:35;;;;;;;41.95;17.63;;;8.30;92.00;;;;;;5092060;28;20146;-73
2022/01/25 02:17:37;;;;;;;36.53;15.93;;;8.40;91.90;;;;;;5073322;28;20549;-73
2022/01/25 02:23:18;;;;;;;41.90;15.65;;;8.30;91.80;;;;;;5091978;28;20611;-73
2022/01/25 02:25:53;;;;;;;39.92;19.23;;;8.30;91.80;;;;;;5100373;28;20046;-73
2022/01/25 02:28:22;;;;;;;48.65;21.15;;;8.30;91.90;;;;;;5086120;28;20031;-73
2022/01/25 02:30:48;;;;;;;25.35;11.95;;;8.30;91.80;;;;;;5096917;28;20043;-73
2022/01/25 02:33:14;;;;;;;37.13;14.98;;;8.30;91.90;;;;;;5085690;28;20050;-73
2022/01/25 02:35:42;;;;;;;44.67;18.63;;;8.30;91.80;;;;;;5099659;28;20118;-73
2022/01/25 02:38:09;;;;;;;18.73;8.20;;;8.30;91.80;;;;;;5091566;28;20039;-72
2022/01/25 02:40:35;;;;;;;40.58;13.68;;;8.30;91.70;;;;;;5087499;28;20403;-73
2022/01/25 02:43:01;;;;;;;38.53;14.93;;;8.30;91.70;;;;;;5084110;28;20024;-73
2022/01/25 02:45:33;;;;;;;22.90;9.13;;;8.20;91.80;;;;;;5092119;28;20058;-73
2022/01/25 02:50:43;;;;;;;21.63;9.63;;;8.20;91.80;;;;;;5094035;28;20483;-73
2022/01/25 02:53:09;;;;;;;35.00;15.27;;;8.20;91.80;;;;;;5095432;28;20518;-73
2022/01/25 02:55:37;;;;;;;31.55;13.40;;;8.20;91.90;;;;;;5093832;28;20036;-73
2022/01/25 02:58:05;;;;;;;47.53;18.98;;;8.30;91.90;;;;;;5087300;28;20059;-73
2022/01/25 03:00:31;;;;;;;39.10;14.52;;;8.20;91.90;;;;;;5092044;28;20047;-73
2022/01/25 03:02:57;;;;;;;27.13;10.85;;;8.30;91.90;;;;;;5096415;28;20028;-73
2022/01/25 03:05:23;;;;;;;31.20;14.48;;;8.20;91.80;;;;;;5094353;28;20487;-73
2022/01/25 03:07:49;;;;;;;30.55;12.98;;;8.30;91.90;;;;;;5095387;28;20110;-73
2022/01/25 03:10:15;;;;;;;10.95;4.97;;;8.20;91.80;;;;;;5094910;28;20371;-72
2022/01/25 03:12:47;;;;;;;19.88;9.90;;;8.20;91.80;;;;;;5094577;28;20032;-73
2022/01/25 03:17:53;;;;;;;46.28;19.02;;;8.20;91.80;;;;;;5097636;28;20110;-73
2022/01/25 03:20:36;;;;;;;33.97;14.38;;;8.20;91.80;;;;;;5094328;28;20566;-73
2022/01/25 03:23:06;;;;;;;37.70;16.05;;;8.20;91.90;;;;;;5104313;28;20032;-73
2022/01/25 03:25:32;;;;;;;37.85;15.23;;;8.20;91.90;;;;;;5101912;28;20031;-73
2022/01/25 03:27:58;;;;;;;50.58;17.95;;;8.20;91.90;;;;;;5104925;28;20532;-73
2022/01/25 03:30:25;;;;;;;16.42;9.05;;;8.20;91.90;;;;;;5094659;28;20041;-73
2022/01/25 03:32:53;;;;;;;30.98;12.43;;;8.20;91.90;;;;;;5090827;28;20039;-73
2022/01/25 03:35:19;;;;;;;38.72;17.05;;;8.20;91.90;;;;;;5080258;28;20782;-73
2022/01/25 03:37:45;;;;;;;45.42;16.45;;;8.20;91.90;;;;;;5094863;28;20028;-73
2022/01/25 03:40:11;;;;;;;24.35;10.35;;;8.20;91.90;;;;;;5093528;28;20425;-73
2022/01/25 03:42:38;;;;;;;28.38;7.10;;;8.10;91.80;;;;;;5094974;28;20020;-73
2022/01/25 03:45:06;;;;;;;30.80;10.82;;;8.10;91.90;;;;;;5094414;28;20031;-73
2022/01/25 03:47:45;;;;;;;13.02;7.38;;;8.20;91.90;;;;;;5093831;28;20391;-73
2022/01/25 03:50:11;;;;;;;23.63;7.80;;;8.10;91.80;;;;;;5083386;28;20031;-73
2022/01/25 03:52:37;;;;;;;12.50;7.22;;;8.10;91.80;;;;;;5094223;28;20484;-73
2022/01/25 03:55:06;;;;;;;42.78;15.13;;;8.00;91.80;;;;;;5083004;28;20040;-73
2022/01/25 03:57:32;;;;;;;37.08;16.00;;;8.00;91.80;;;;;;5088886;28;20372;-73
2022/01/25 03:59:59;;;;;;;20.33;9.25;;;8.00;91.90;;;;;;5098573;28;20084;-73
2022/01/25 04:02:28;;;;;;;17.95;5.78;;;8.00;91.90;;;;;;5093249;28;20038;-73
2022/01/25 04:04:53;;;;;;;19.83;8.18;;;8.00;91.90;;;;;;5086194;28;20146;-73
2022/01/25 04:07:28;;;;;;;27.17;12.30;;;8.00;92.00;;;;;;5091341;28;20116;-73
2022/01/25 04:09:54;;;;;;;41.05;16.23;;;8.00;92.00;;;;;;5085881;28;20439;-72
2022/01/25 04:12:19;;;;;;;32.03;13.25;;;8.00;91.90;;;;;;5100506;28;20057;-73
2022/01/25 04:14:45;;;;;;;30.33;12.25;;;8.00;92.00;;;;;;5093958;28;20111;-74
2022/01/25 04:17:14;;;;;;;21.63;8.77;;;8.00;92.00;;;;;;5093110;28;20020;-73
2022/01/25 04:19:44;;;;;;;35.17;14.68;;;8.00;92.00;;;;;;5093821;28;20040;-73
2022/01/25 04:27:05;;;;;;;20.73;9.85;;;8.00;92.00;;;;;;5105333;28;20025;-73
2022/01/25 04:29:31;;;;;;;13.82;6.57;;;8.00;92.00;;;;;;5084445;28;20044;-73
2022/01/25 04:31:57;;;;;;;36.17;14.13;;;8.00;92.00;;;;;;5093701;28;20039;-73
2022/01/25 04:34:37;;;;;;;45.35;17.27;;;7.90;91.90;;;;;;5093847;28;20057;-73
2022/01/25 04:51:14;;;;;;;25.27;9.95;;;7.90;92.00;;;;;;5073379;28;20028;-73
2022/01/25 04:53:52;;;;;;;31.30;13.20;;;7.90;92.00;;;;;;5086538;28;20044;-73
2022/01/25 04:56:26;;;;;;;26.80;11.25;;;7.90;92.00;;;;;;5087849;28;20052;-73
2022/01/25 04:59:04;;;;;;;40.60;15.13;;;7.90;92.10;;;;;;5083166;28;20043;-73
2022/01/25 05:01:30;;;;;;;39.80;16.67;;;7.90;92.10;;;;;;5086213;28;20032;-73
2022/01/25 05:06:22;;;;;;;54.50;21.35;;;7.90;92.10;;;;;;5090138;28;20028;-73
2022/01/25 05:08:52;;;;;;;25.40;10.77;;;7.90;92.10;;;;;;5093713;28;20036;-73
2022/01/25 05:11:27;;;;;;;44.33;17.67;;;7.90;92.10;;;;;;5106424;28;20062;-73
2022/01/25 05:14:11;;;;;;;47.95;17.35;;;7.90;92.10;;;;;;5108025;28;20474;-73
2022/01/25 05:24:32;;;;;;;28.38;12.55;;;7.90;92.00;;;;;;5100444;28;20408;-74
2022/01/25 05:26:58;;;;;;;28.20;8.05;;;8.00;92.10;;;;;;5105089;28;20479;-72
2022/01/25 05:29:24;;;;;;;18.92;7.05;;;8.00;92.00;;;;;;5105978;28;20088;-75
2022/01/25 05:31:49;;;;;;;19.80;8.23;;;8.00;92.10;;;;;;5095048;28;20387;-73
2022/01/25 05:34:15;;;;;;;9.90;5.57;;;8.00;92.00;;;;;;5080795;28;20033;-73
2022/01/25 05:36:43;;;;;;;16.40;8.70;;;7.90;91.90;;;;;;5086752;28;20025;-73
2022/01/25 05:39:13;;;;;;;36.65;14.25;;;7.90;91.90;;;;;;5084276;28;20120;-73
2022/01/25 05:41:40;;;;;;;47.97;18.08;;;7.90;92.00;;;;;;5092180;28;20371;-73
2022/01/25 05:44:25;;;;;;;39.20;14.40;;;7.90;92.00;;;;;;5092510;28;20115;-73
2022/01/25 05:49:23;;;;;;;24.27;10.82;;;7.90;92.10;;;;;;5086102;28;20034;-73
2022/01/25 05:51:49;;;;;;;15.77;6.13;;;7.90;92.10;;;;;;5092391;28;20043;-73
2022/01/25 05:54:15;;;;;;;18.98;6.57;;;7.90;92.10;;;;;;5091488;28;20020;-73
2022/01/25 05:56:40;;;;;;;30.48;12.13;;;7.90;92.10;;;;;;5092489;28;20127;-73
2022/01/25 05:59:06;;;;;;;20.40;9.80;;;7.90;92.10;;;;;;5105782;28;20043;-73
2022/01/25 06:01:34;;;;;;;19.40;9.63;;;7.90;92.10;;;;;;5091839;28;20036;-73
2022/01/25 06:04:00;;;;;;;14.68;5.97;;;7.90;92.10;;;;;;5089151;28;20024;-73
2022/01/25 06:06:26;;;;;;;47.17;20.60;;;7.80;92.10;;;;;;5092506;28;20544;-73
2022/01/25 06:08:51;;;;;;;20.15;8.25;;;7.90;92.10;;;;;;5079627;28;20403;-73
2022/01/25 06:11:19;;;;;;;29.02;12.35;;;7.90;92.20;;;;;;5092476;28;20045;-73
2022/01/25 06:13:45;;;;;;;44.53;18.80;;;7.90;92.20;;;;;;5091844;28;20079;-76
2022/01/25 06:16:11;;;;;;;33.13;14.50;;;7.90;92.20;;;;;;5099141;28;20067;-75
2022/01/25 06:18:36;;;;;;;38.20;15.77;;;7.90;92.20;;;;;;5112465;28;20111;-73
2022/01/25 06:21:05;;;;;;;42.45;17.58;;;7.90;92.20;;;;;;5096457;28;20034;-74
2022/01/25 06:23:31;;;;;;;37.38;16.75;;;7.90;92.20;;;;;;5095402;28;20028;-72
2022/01/25 06:25:56;;;;;;;15.23;8.02;;;7.90;92.10;;;;;;5108447;28;20057;-72
2022/01/25 06:28:22;;;;;;;45.17;17.88;;;7.90;92.10;;;;;;5109873;28;20016;-72
2022/01/25 06:30:48;;;;;;;39.95;18.52;;;7.80;92.10;;;;;;5106429;28;20479;-71
2022/01/25 06:33:13;;;;;;;46.38;17.52;;;7.90;92.10;;;;;;5107714;28;20527;-72
2022/01/25 06:35:45;;;;;;;41.47;17.23;;;7.90;92.20;;;;;;5104813;28;20051;-72
2022/01/25 06:38:10;;;;;;;41.55;16.90;;;7.90;92.20;;;;;;5108574;28;20478;-72
2022/01/25 06:40:36;;;;;;;41.60;17.65;;;7.90;92.20;;;;;;5103579;28;20035;-72
2022/01/25 06:43:02;;;;;;;37.90;12.95;;;7.90;92.20;;;;;;5104099;28;20028;-73
2022/01/25 06:45:27;;;;;;;47.47;19.23;;;8.00;92.20;;;;;;5107131;28;20042;-73
2022/01/25 06:47:53;;;;;;;46.38;19.63;;;8.00;92.20;;;;;;5097769;28;20030;-73
2022/01/25 06:50:22;;;;;;;43.67;15.88;;;8.00;92.20;;;;;;5095298;28;20126;-74
2022/01/25 06:52:48;;;;;;;35.63;13.93;;;8.00;92.10;;;;;;5112400;28;20052;-72
2022/01/25 06:55:16;;;;;;;45.05;17.05;;;8.00;92.10;;;;;;5099948;28;20043;-72
2022/01/25 06:57:43;;;;;;;39.72;19.08;;;8.00;92.20;;;;;;5096433;28;20464;-74
2022/01/25 07:00:12;;;;;;;42.13;17.25;;;8.00;92.10;;;;;;5104359;28;20036;-72
2022/01/25 07:02:38;;;;;;;44.38;17.25;;;8.00;92.10;;;;;;5109150;28;20069;-72
2022/01/25 07:05:04;;;;;;;39.55;16.05;;;8.00;92.10;;;;;;5105366;28;20443;-73
2022/01/25 07:07:30;;;;;;;38.85;14.35;;;8.10;92.10;;;;;;5104654;28;20549;-75
2022/01/25 07:09:57;;;;;;;47.50;18.80;;;8.10;92.10;;;;;;5110191;28;20038;-75
2022/01/25 07:12:23;;;;;;;49.65;19.50;;;8.10;92.10;;;;;;5100787;28;20085;-75
2022/01/25 07:14:51;;;;;;;37.85;15.50;;;8.10;92.10;;;;;;5102826;28;20031;-75
2022/01/25 07:17:17;;;;;;;47.28;20.08;;;8.00;92.00;;;;;;5101476;28;20077;-79
2022/01/25 07:19:43;;;;;;;37.22;16.90;;;8.00;92.00;;;;;;5108010;28;20023;-75
2022/01/25 07:22:09;;;;;;;40.00;16.67;;;8.00;92.10;;;;;;5105834;28;20041;-72
2022/01/25 07:24:35;;;;;;;31.95;13.55;;;8.10;92.10;;;;;;5109479;28;20024;-72
2022/01/25 07:27:00;;;;;;;40.90;18.23;;;8.00;92.10;;;;;;5109777;28;20557;-72
2022/01/25 07:29:27;;;;;;;31.27;11.20;;;8.10;92.10;;;;;;5112232;28;20024;-72
2022/01/25 07:31:53;;;;;;;50.17;19.17;;;8.10;92.10;;;;;;5111135;28;20031;-72
2022/01/25 07:34:19;;;;;;;44.25;17.80;;;8.00;92.10;;;;;;5103643;28;20106;-83
2022/01/25 07:36:45;;;;;;;31.45;13.25;;;8.10;92.10;;;;;;5105703;28;20661;-74
2022/01/25 07:39:10;;;;;;;48.45;20.30;;;8.10;92.10;;;;;;5110645;28;20027;-71
2022/01/25 07:41:37;;;;;;;36.60;12.38;;;8.10;92.10;;;;;;5097818;28;20459;-72
2022/01/25 07:44:06;;;;;;;19.88;8.25;;;8.10;92.10;;;;;;5084777;28;20029;-72
2022/01/25 07:46:33;;;;;;;36.47;15.73;;;8.10;92.10;;;;;;5093584;28;20036;-73
2022/01/25 07:48:59;;;;;;;38.65;13.70;;;8.10;92.10;;;;;;5103034;28;20084;-73
2022/01/25 07:51:28;;;;;;;23.67;9.43;;;8.00;92.00;;;;;;5103699;28;20119;-73
2022/01/25 07:53:55;;;;;;;39.50;15.93;;;8.10;92.00;;;;;;5106784;28;20505;-73
2022/01/25 07:56:21;;;;;;;36.85;14.25;;;8.00;92.00;;;;;;5098808;28;20043;-73
2022/01/25 07:58:47;;;;;;;34.10;12.70;;;8.00;92.00;;;;;;5106733;28;20024;-73
2022/01/25 08:01:14;;;;;;;37.03;14.07;;;8.00;92.10;;;;;;5108201;28;20392;-73
2022/01/25 08:03:40;;;;;;;9.10;3.90;;;8.00;92.10;;;;;;5089920;28;20608;-73
2022/01/25 08:06:07;;;;;;;21.88;9.15;;;8.00;92.20;;;;;;5092061;28;20032;-73
2022/01/25 08:08:33;;;;;;;15.90;6.97;;;8.00;92.10;;;;;;5093600;28;20032;-73
2022/01/25 08:11:03;;;;;;;11.13;5.35;;;8.00;92.10;;;;;;5094098;28;20039;-73
2022/01/25 08:13:30;;;;;;;36.80;13.10;;;8.00;92.20;;;;;;5094082;28;20024;-79
2022/01/25 08:15:55;;;;;;;54.38;20.02;;;7.90;92.20;;;;;;5078637;28;20040;-73
2022/01/25 08:18:21;;;;;;;27.17;9.63;;;7.90;92.20;;;;;;5090562;28;20039;-82
2022/01/25 08:20:47;;;;;;;27.23;13.43;;;7.90;92.20;;;;;;5103499;28;20042;-81
2022/01/25 08:23:13;;;;;;;37.72;14.52;;;7.90;92.30;;;;;;5110235;28;20024;-72
2022/01/25 08:25:38;;;;;;;44.70;18.35;;;7.90;92.30;;;;;;5114064;28;20122;-72
2022/01/25 08:28:04;;;;;;;49.35;19.75;;;7.90;92.30;;;;;;5093040;28;20440;-74
2022/01/25 08:30:30;;;;;;;45.05;17.73;;;7.90;92.30;;;;;;5083389;28;20043;-80
2022/01/25 08:32:56;;;;;;;50.38;20.98;;;7.90;92.30;;;;;;5098526;28;20031;-77
2022/01/25 08:35:21;;;;;;;53.15;20.17;;;7.90;92.30;;;;;;5099034;28;20384;-71
2022/01/25 08:37:47;;;;;;;49.55;22.77;;;7.90;92.30;;;;;;5113453;28;20054;-69
2022/01/25 08:40:13;;;;;;;55.83;19.48;;;8.00;92.30;;;;;;5112996;28;20061;-69
2022/01/25 08:42:38;;;;;;;50.22;22.05;;;8.00;92.20;;;;;;5111099;28;20027;-69
2022/01/25 08:45:07;;;;;;;22.65;10.10;;;8.00;92.20;;;;;;5112622;28;20032;-69
2022/01/25 08:47:33;;;;;;;44.00;18.88;;;8.00;92.20;;;;;;5112688;28;20027;-69
2022/01/25 08:49:59;;;;;;;38.70;14.85;;;8.10;92.20;;;;;;5107686;28;20453;-69
2022/01/25 08:52:25;;;;;;;24.02;9.88;;;8.10;92.20;;;;;;5111878;28;20122;-69
2022/01/25 08:54:50;;;;;;;52.55;21.30;;;8.10;92.20;;;;;;5112842;28;20027;-70
2022/01/25 08:57:17;;;;;;;49.67;20.80;;;8.10;92.20;;;;;;5118540;28;20463;-74
2022/01/25 08:59:42;;;;;;;52.90;22.23;;;8.10;92.20;;;;;;5119394;28;20531;-68
2022/01/25 09:02:12;;;;;;;48.28;15.20;;;8.10;92.20;;;;;;5112089;28;20110;-70
2022/01/25 09:04:37;;;;;;;53.50;21.88;;;8.10;92.10;;;;;;5101618;28;20364;-71
2022/01/25 09:07:03;;;;;;;46.03;17.23;;;8.10;92.10;;;;;;5102028;28;20038;-70
2022/01/25 09:09:29;;;;;;;41.72;17.15;;;8.10;92.10;;;;;;5110354;28;20527;-70
2022/01/25 09:11:56;;;;;;;44.70;19.52;;;8.10;92.10;;;;;;5098549;28;20079;-70
2022/01/25 09:14:23;;;;;;;37.72;14.27;;;8.10;92.10;;;;;;5104204;28;20035;-70
2022/01/25 09:16:49;;;;;;;57.67;19.30;;;8.10;92.20;;;;;;5102050;28;20127;-70
2022/01/25 09:19:15;;;;;;;38.83;14.02;;;8.10;92.20;;;;;;5103746;28;20098;-75
2022/01/25 09:21:41;;;;;;;51.85;18.73;;;8.10;92.20;;;;;;5109016;28;20106;-70
2022/01/25 09:24:07;;;;;;;49.25;15.63;;;8.00;92.10;;;;;;5093614;28;20108;-70
2022/01/25 09:26:32;;;;;;;38.15;15.55;;;8.00;92.20;;;;;;5080752;28;20071;-70
2022/01/25 09:28:58;;;;;;;47.40;17.17;;;8.00;92.20;;;;;;5091434;28;20072;-70
2022/01/25 09:31:24;;;;;;;44.28;18.95;;;8.00;92.20;;;;;;5092040;28;20060;-70
2022/01/25 09:33:50;;;;;;;49.47;19.65;;;8.00;92.20;;;;;;5086987;28;20029;-70
2022/01/25 09:36:16;;;;;;;46.97;18.73;;;8.00;92.30;;;;;;5094143;28;20035;-69
2022/01/25 09:38:42;;;;;;;45.70;19.50;;;8.00;92.30;;;;;;5108904;28;20076;-70
2022/01/25 09:41:07;;;;;;;45.25;17.95;;;8.00;92.30;;;;;;5094485;28;20448;-70
2022/01/25 09:43:33;;;;;;;15.27;6.95;;;8.00;92.20;;;;;;5092238;28;20032;-70
2022/01/25 09:45:59;;;;;;;23.00;8.93;;;8.00;92.20;;;;;;5090029;28;20028;-70
2022/01/25 09:48:25;;;;;;;18.35;7.32;;;8.00;92.20;;;;;;5079004;28;20153;-70
2022/01/25 09:50:51;;;;;;;8.65;4.93;;;8.00;92.20;;;;;;5082046;28;20024;-70
2022/01/25 09:53:17;;;;;;;39.83;16.33;;;7.90;92.20;;;;;;5078842;28;20032;-70
2022/01/25 09:55:44;;;;;;;31.75;11.55;;;7.90;92.30;;;;;;5083545;28;20074;-70
2022/01/25 09:58:13;;;;;;;39.45;13.38;;;7.90;92.40;;;;;;5075824;28;20024;-70
2022/01/25 10:00:40;;;;;;;15.45;6.50;;;7.90;92.40;;;;;;5082405;28;20044;-71
2022/01/25 10:03:20;;;;;;;11.48;5.95;;;7.90;92.40;;;;;;5090913;28;20115;-70
2022/01/25 10:05:48;;;;;;;26.80;9.35;;;7.80;92.40;;;;;;5091784;28;20039;-71
2022/01/25 10:08:29;;;;;;;49.78;18.17;;;7.80;92.40;;;;;;5078857;28;20472;-70
2022/01/25 10:10:57;;;;;;;35.67;13.20;;;7.80;92.50;;;;;;5102057;28;20034;-70
2022/01/25 10:13:26;;;;;;;23.90;10.82;;;7.80;92.50;;;;;;5111175;28;20038;-71
2022/01/25 10:16:03;;;;;;;17.85;9.65;;;7.80;92.60;;;;;;5107758;28;20043;-72
2022/01/25 10:18:42;;;;;;;21.20;8.35;;;7.80;92.60;;;;;;5102351;28;20068;-71
2022/01/25 10:21:26;;;;;;;15.27;5.72;;;7.70;92.60;;;;;;5091203;28;20436;-71
2022/01/25 10:24:00;;;;;;;22.13;9.60;;;7.70;92.70;;;;;;5105017;28;20031;-71
2022/01/25 10:26:29;;;;;;;16.65;7.47;;;7.70;92.70;;;;;;5091624;28;20484;-74
2022/01/25 10:28:55;;;;;;;27.85;10.68;;;7.80;92.80;;;;;;5090492;28;20028;-72
2022/01/25 10:31:31;;;;;;;34.85;10.05;;;7.70;92.80;;;;;;5086362;28;20471;-73
2022/01/25 10:33:57;;;;;;;26.90;10.13;;;7.70;92.80;;;;;;5111626;28;20097;-73
2022/01/25 10:36:23;;;;;;;31.35;10.70;;;7.70;92.80;;;;;;5108462;28;20475;-72
2022/01/25 10:38:52;;;;;;;25.08;10.90;;;7.70;92.90;;;;;;5107844;28;20036;-72
2022/01/25 10:41:20;;;;;;;20.02;7.30;;;7.70;92.90;;;;;;5110382;28;20057;-74
2022/01/25 10:43:48;;;;;;;14.52;8.65;;;7.70;92.90;;;;;;5102265;28;20038;-82
2022/01/25 10:46:19;;;;;;;13.70;6.55;;;7.80;92.90;;;;;;5105505;28;20027;-74
2022/01/25 10:48:48;;;;;;;14.73;8.95;;;7.80;92.90;;;;;;5092859;28;20067;-73
2022/01/25 10:51:21;;;;;;;25.45;10.23;;;7.80;92.90;;;;;;5096203;28;20483;-74
2022/01/25 10:54:06;;;;;;;29.73;12.93;;;7.80;92.90;;;;;;5091693;28;20056;-72
2022/01/25 10:56:58;;;;;;;8.23;5.15;;;7.70;92.90;;;;;;5080059;28;20036;-75
2022/01/25 10:59:25;;;;;;;20.02;9.80;;;7.70;92.90;;;;;;5071981;28;20062;-72
2022/01/25 11:01:51;;;;;;;26.67;9.98;;;7.70;92.90;;;;;;5086183;28;20036;-71
2022/01/25 11:04:52;;;;;;;32.42;14.20;;;7.70;93.00;;;;;;5090981;28;20070;-70
2022/01/25 11:07:18;;;;;;;23.50;9.05;;;7.70;93.30;;;;;;5061202;28;20127;-70
2022/01/25 11:09:47;;;;;;;38.95;15.55;;;7.80;93.00;;;;;;5085109;28;20104;-70
2022/01/25 11:12:18;;;;;;;15.65;8.32;;;7.70;93.00;;;;;;5081449;28;20051;-70
2022/01/25 11:14:50;;;;;;;20.15;9.32;;;7.70;93.00;;;;;;5096131;28;20036;-71
2022/01/25 11:17:27;;;;;;;27.33;10.07;;;7.80;93.10;;;;;;5104734;28;20114;-70
2022/01/25 11:19:54;;;;;;;19.15;6.63;;;7.70;93.10;;;;;;5094784;28;20549;-70
2022/01/25 11:22:20;;;;;;;21.70;9.43;;;7.70;93.00;;;;;;5095137;28;20040;-70
2022/01/25 11:24:52;;;;;;;19.63;7.55;;;7.70;93.10;;;;;;5107439;28;20028;-70
2022/01/25 11:27:19;;;;;;;38.40;12.30;;;7.70;93.10;;;;;;5095124;28;20066;-70
2022/01/25 11:29:47;;;;;;;28.65;11.98;;;7.80;93.20;;;;;;5111703;28;20084;-71
2022/01/25 11:32:15;;;;;;;23.45;9.68;;;7.70;93.20;;;;;;5110837;28;20027;-70
2022/01/25 11:34:44;;;;;;;24.23;9.55;;;7.80;93.20;;;;;;5112046;28;20061;-70
2022/01/25 11:37:11;;;;;;;30.73;13.63;;;7.80;93.20;;;;;;5114175;28;20036;-71
2022/01/25 11:39:49;;;;;;;22.30;9.50;;;7.70;93.20;;;;;;5106735;28;20127;-72
2022/01/25 11:42:24;;;;;;;42.25;16.90;;;7.70;93.20;;;;;;5084342;28;20036;-70
2022/01/25 11:44:52;;;;;;;14.80;7.05;;;7.70;93.30;;;;;;5094170;28;20077;-73
2022/01/25 11:47:33;;;;;;;17.83;7.25;;;7.70;93.30;;;;;;5104946;28;20110;-71
2022/01/25 11:50:04;;;;;;;13.18;7.45;;;7.70;93.40;;;;;;5102690;28;20041;-72
2022/01/25 11:52:30;;;;;;;5.50;3.63;;;7.70;93.40;;;;;;5106298;28;20059;-72
2022/01/25 11:55:26;;;;;;;27.08;8.98;;;7.70;93.40;;;;;;5106260;28;20036;-72
2022/01/25 11:57:56;;;;;;;19.75;9.85;;;7.70;93.40;;;;;;5111202;28;20444;-72
2022/01/25 12:00:35;;;;;;;9.02;4.97;;;7.70;93.40;;;;;;5108975;28;20034;-71
2022/01/25 12:03:02;;;;;;;44.22;15.32;;;7.70;93.50;;;;;;5106806;28;20035;-70
2022/01/25 12:05:28;;;;;;;37.60;15.98;;;7.70;93.50;;;;;;5112519;28;20073;-71
2022/01/25 12:08:14;;;;;;;10.00;5.30;;;7.70;93.50;;;;;;5102207;28;20474;-71
2022/01/25 12:10:43;;;;;;;18.30;9.80;;;7.70;93.50;;;;;;5084783;28;20033;-71
2022/01/25 12:13:35;;;;;;;19.92;10.50;;;7.70;93.50;;;;;;5112911;28;20035;-71
2022/01/25 12:16:24;;;;;;;17.58;8.10;;;7.70;93.50;;;;;;5104779;28;20066;-71
2022/01/25 12:18:57;;;;;;;45.47;20.17;;;7.80;93.50;;;;;;5087224;28;20056;-70
2022/01/25 12:21:45;;;;;;;24.95;10.00;;;7.70;93.50;;;;;;5093166;28;20036;-71
2022/01/25 12:24:29;;;;;;;27.27;10.45;;;7.80;93.60;;;;;;5106169;28;20032;-83
2022/01/25 12:27:14;;;;;;;17.10;8.57;;;7.70;93.60;;;;;;5093845;28;20036;-72
2022/01/25 12:30:08;;;;;;;13.88;6.32;;;7.80;93.60;;;;;;5108145;28;20122;-72
2022/01/25 12:32:37;;;;;;;17.73;8.55;;;7.70;93.60;;;;;;5111824;28;20027;-72
2022/01/25 12:35:15;;;;;;;20.85;8.65;;;7.80;93.60;;;;;;5105362;28;20565;-72
2022/01/25 12:37:53;;;;;;;21.73;10.25;;;7.80;93.60;;;;;;5113645;28;20394;-72
2022/01/25 12:40:31;;;;;;;30.88;14.05;;;7.80;93.60;;;;;;5113248;28;20116;-72
2022/01/25 12:43:05;;;;;;;12.88;6.72;;;7.80;93.60;;;;;;5089188;28;20040;-72
2022/01/25 12:45:35;;;;;;;29.85;13.40;;;7.80;93.70;;;;;;5096168;28;20059;-72
2022/01/25 12:48:06;;;;;;;16.40;6.93;;;7.80;93.70;;;;;;5107206;28;20032;-72
2022/01/25 12:50:34;;;;;;;18.65;9.27;;;7.80;93.60;;;;;;5109290;28;20055;-72
2022/01/25 12:53:05;;;;;;;30.65;10.10;;;7.80;93.60;;;;;;5099019;28;20055;-72
2022/01/25 12:55:34;;;;;;;16.83;8.80;;;7.80;93.70;;;;;;5085437;28;20032;-72
2022/01/25 12:58:01;;;;;;;11.20;5.47;;;7.80;93.70;;;;;;5099479;28;20049;-72
2022/01/25 13:00:33;;;;;;;8.77;6.18;;;7.80;93.60;;;;;;5107211;28;20399;-72
2022/01/25 13:03:20;;;;;;;29.85;14.15;;;7.80;93.60;;;;;;5107996;28;20042;-72
2022/01/25 13:06:11;;;;;;;26.08;11.65;;;7.90;93.60;;;;;;5110785;28;20043;-72
2022/01/25 13:08:51;;;;;;;32.60;12.73;;;7.90;93.60;;;;;;5107028;28;20020;-72
2022/01/25 13:11:20;;;;;;;20.05;10.95;;;7.90;93.60;;;;;;5106516;28;20115;-72
2022/01/25 13:13:59;;;;;;;17.92;8.38;;;7.90;93.60;;;;;;5106248;28;20110;-77
2022/01/25 13:16:44;;;;;;;14.15;8.05;;;7.90;93.60;;;;;;5093109;28;20063;-72
2022/01/25 13:19:11;;;;;;;11.60;6.38;;;7.90;93.60;;;;;;5110907;28;20038;-72
2022/01/25 13:21:45;;;;;;;28.45;10.98;;;7.90;93.60;;;;;;5102529;28;20395;-72
2022/01/25 13:24:16;;;;;;;;;;;7.90;93.60;;;;;;5095167;28;20020;-72
2022/01/25 13:26:58;;;;;;;9.90;5.15;;;7.90;93.60;;;;;;5092915;28;19908;-72
2022/01/25 13:32:19;;;;;;;9.80;4.90;;;7.80;93.60;;;;;;5082547;28;20076;-72
2022/01/25 13:35:01;;;;;;;10.10;5.03;;;7.90;93.70;;;;;;5106162;28;20027;-72
2022/01/25 13:37:28;;;;;;;27.45;12.15;;;7.90;93.70;;;;;;5111783;28;20094;-72
2022/01/25 13:39:57;;;;;;;24.52;9.43;;;7.90;93.70;;;;;;5111261;28;20478;-72
2022/01/25 13:42:28;;;;;;;42.05;17.17;;;7.90;93.70;;;;;;5112415;28;20039;-71
2022/01/25 13:48:15;;;;;;;14.35;6.93;;;7.90;93.70;;;;;;5101544;28;20045;-72
2022/01/25 13:50:41;;;;;;;30.58;11.98;;;7.90;93.60;;;;;;5106535;28;20040;-72
2022/01/25 13:53:08;;;;;;;29.67;11.20;;;7.90;93.60;;;;;;5109378;28;20044;-72
2022/01/25 13:55:35;;;;;;;21.52;10.38;;;7.90;93.60;;;;;;5110390;28;20092;-72
2022/01/25 13:58:01;;;;;;;15.60;8.18;;;8.00;93.60;;;;;;5110412;28;20075;-72
2022/01/25 14:00:27;;;;;;;16.90;8.20;;;8.00;93.90;;;;;;5107537;28;20104;-72
2022/01/25 14:02:56;;;;;;;15.68;7.18;;;8.00;93.60;;;;;;5104349;28;20027;-72
2022/01/25 14:05:23;;;;;;;18.98;8.27;;;8.00;93.60;;;;;;5102368;28;20035;-72
2022/01/25 14:07:54;;;;;;;31.17;12.25;;;8.00;93.60;;;;;;5104662;28;20039;-72
2022/01/25 14:10:26;;;;;;;38.67;16.38;;;8.00;93.50;;;;;;5103554;28;20044;-72
2022/01/25 14:23:56;;;;;;;21.92;9.30;;;7.90;93.60;;;;;;5101728;28;20031;-70
2022/01/25 14:26:28;;;;;;;24.23;9.88;;;7.90;93.60;;;;;;5107257;28;20474;-71
2022/01/25 14:29:04;;;;;;;19.90;10.05;;;7.90;93.70;;;;;;5106382;28;20069;-71
2022/01/25 14:31:30;;;;;;;12.80;7.65;;;7.80;93.70;;;;;;5107349;28;20058;-71
2022/01/25 14:34:06;;;;;;;27.63;12.00;;;7.80;93.70;;;;;;5102765;28;20424;-72
2022/01/25 14:36:34;;;;;;;32.88;13.68;;;7.90;93.80;;;;;;5105934;28;20054;-71